Time;durP1;ratioP1;P1;durP2;ratioP2;P2;SDS_P1;SDS_P2;PMS_P1;PMS_P2;Temp;Humidity;BMP_temperature;BMP_pressure;BME280_temperature;BME280_humidity;BME280_pressure;Samples;Min_cycle;Max_cycle;Signal;HPM_P1;HPM_P2
2023/01/15 00:01:45;;;;;;;0.73;0.73;;;;;;;9.58;58.92;99876.69;5085128;28;20032;-78
2023/01/15 00:04:11;;;;;;;0.10;0.10;;;;;;;9.59;58.60;99869.66;5093304;28;20079;-77
2023/01/15 00:06:40;;;;;;;0.10;0.10;;;;;;;9.57;58.25;99869.69;5085115;28;20488;-78
2023/01/15 00:09:08;;;;;;;0.20;0.20;;;;;;;9.58;58.62;99882.00;5089995;28;20027;-77
2023/01/15 00:11:34;;;;;;;0.10;0.10;;;;;;;9.52;58.33;99877.78;5098117;28;20039;-77
2023/01/15 00:14:00;;;;;;;0.30;0.30;;;;;;;9.61;58.88;99871.31;5098703;28;20032;-78
2023/01/15 00:16:26;;;;;;;0.10;0.10;;;;;;;9.60;59.07;99874.88;5094878;28;20504;-79
2023/01/15 00:18:55;;;;;;;5.05;0.98;;;;;;;9.51;58.94;99875.19;5092441;28;21814;-77
2023/01/15 00:21:22;;;;;;;0.20;0.20;;;;;;;9.50;59.05;99874.31;5098142;28;20095;-76
2023/01/15 00:29:23;;;;;;;1.10;1.10;;;;;;;9.55;58.92;99861.78;5088450;28;20032;-78
2023/01/15 00:31:56;;;;;;;0.20;0.20;;;;;;;9.54;58.72;99853.91;5093201;28;20118;-78
2023/01/15 00:34:22;;;;;;;0.20;0.20;;;;;;;9.50;58.70;99853.16;5089965;28;20020;-78
2023/01/15 00:36:49;;;;;;;0.50;0.50;;;;;;;9.48;57.83;99854.09;5091529;28;20139;-79
2023/01/15 00:39:15;;;;;;;0.10;0.10;;;;;;;9.50;57.92;99850.50;5092082;28;20028;-79
2023/01/15 00:41:41;;;;;;;0.10;0.10;;;;;;;9.54;57.60;99854.81;5094114;28;20024;-79
2023/01/15 00:44:07;;;;;;;0.13;0.13;;;;;;;9.46;57.22;99858.56;5095144;28;20036;-78
2023/01/15 00:46:33;;;;;;;0.10;0.10;;;;;;;9.58;57.63;99863.47;5093772;28;20064;-78
2023/01/15 00:49:00;;;;;;;0.10;0.10;;;;;;;9.48;56.77;99856.75;5087935;28;20028;-78
2023/01/15 00:51:26;;;;;;;0.17;0.17;;;;;;;9.46;56.77;99864.75;5094076;28;20051;-79
2023/01/15 00:53:52;;;;;;;0.15;0.15;;;;;;;9.59;56.94;99852.00;5095164;28;20020;-79
2023/01/15 00:56:18;;;;;;;13.50;1.35;;;;;;;9.49;56.78;99855.84;5093305;28;20111;-79
2023/01/15 00:58:46;;;;;;;1.75;0.75;;;;;;;9.51;56.84;99856.66;5094186;28;20111;-79
2023/01/15 01:01:13;;;;;;;5.13;1.20;;;;;;;9.52;57.04;99853.09;5093857;28;20347;-79
2023/01/15 01:03:39;;;;;;;1.45;1.38;;;;;;;9.50;57.38;99852.28;5094873;28;20024;-79
2023/01/15 01:06:05;;;;;;;7.03;1.65;;;;;;;9.43;56.84;99862.19;5094902;28;20518;-79
2023/01/15 01:08:32;;;;;;;0.10;0.10;;;;;;;9.48;57.03;99854.09;5080902;28;20032;-78
2023/01/15 01:11:07;;;;;;;0.10;0.10;;;;;;;9.49;57.03;99869.91;5094666;28;20263;-79
2023/01/15 01:13:35;;;;;;;0.10;0.10;;;;;;;9.49;57.02;99861.13;5095024;28;20028;-79
2023/01/15 01:16:01;;;;;;;0.10;0.10;;;;;;;9.46;56.89;99866.50;5097577;28;20059;-78
2023/01/15 01:18:27;;;;;;;0.10;0.10;;;;;;;9.41;56.26;99868.44;5100711;28;20032;-78
2023/01/15 01:20:54;;;;;;;0.20;0.20;;;;;;;9.49;56.48;99862.00;5100735;28;20039;-79
2023/01/15 01:23:22;;;;;;;0.20;0.20;;;;;;;9.47;56.48;99865.59;5090294;28;20055;-78
2023/01/15 01:25:49;;;;;;;0.17;0.17;;;;;;;9.50;56.78;99873.44;5091602;28;20051;-79
2023/01/15 01:28:15;;;;;;;0.10;0.10;;;;;;;9.38;56.53;99870.28;5088117;28;20119;-79
2023/01/15 01:30:41;;;;;;;0.15;0.15;;;;;;;9.47;56.98;99873.53;5092751;28;20506;-79
2023/01/15 01:33:07;;;;;;;0.32;0.32;;;;;;;9.43;56.91;99882.47;5094436;28;20035;-79
2023/01/15 01:35:34;;;;;;;0.10;0.10;;;;;;;9.47;57.35;99878.81;5094979;28;20487;-78
2023/01/15 01:38:00;;;;;;;0.63;0.63;;;;;;;9.40;56.96;99878.16;5099969;28;20480;-78
2023/01/15 01:40:26;;;;;;;0.20;0.20;;;;;;;9.38;56.63;99869.38;5093743;28;20164;-79
2023/01/15 01:42:52;;;;;;;0.10;0.10;;;;;;;9.39;55.96;99872.00;5098626;28;20032;-79
2023/01/15 01:45:24;;;;;;;0.10;0.10;;;;;;;9.44;56.43;99871.84;5095168;28;20028;-79
2023/01/15 01:47:54;;;;;;;0.20;0.20;;;;;;;9.43;56.18;99878.03;5091056;28;20028;-80
2023/01/15 01:50:21;;;;;;;7.07;1.00;;;;;;;9.36;56.17;99880.03;5083990;28;20024;-80
2023/01/15 01:52:54;;;;;;;0.20;0.20;;;;;;;9.43;56.26;99878.03;5083577;28;20059;-79
2023/01/15 01:55:23;;;;;;;0.10;0.10;;;;;;;9.39;56.42;99882.59;5085966;28;20043;-80
2023/01/15 01:57:53;;;;;;;0.10;0.10;;;;;;;9.26;55.93;99886.50;5094626;28;20103;-79
2023/01/15 02:00:21;;;;;;;0.20;0.20;;;;;;;9.34;55.61;99880.97;5090556;28;20050;-79
2023/01/15 02:02:50;;;;;;;0.13;0.13;;;;;;;9.44;56.16;99876.28;5088863;28;20036;-79
2023/01/15 02:05:31;;;;;;;0.13;0.13;;;;;;;9.48;55.97;99880.56;5089354;28;20475;-79
2023/01/15 02:07:57;;;;;;;0.03;0.03;;;;;;;9.37;55.66;99888.81;5089218;28;20036;-79
2023/01/15 02:10:23;;;;;;;0.10;0.10;;;;;;;9.34;55.30;99878.34;5087520;28;20028;-79
2023/01/15 02:13:12;;;;;;;0.20;0.20;;;;;;;9.54;55.70;99875.97;5097652;28;20024;-79
2023/01/15 02:15:45;;;;;;;0.20;0.20;;;;;;;9.44;55.63;99871.84;5092560;28;20035;-79
2023/01/15 02:18:28;;;;;;;0.10;0.10;;;;;;;9.37;54.85;99865.00;5089325;28;20617;-79
2023/01/15 02:21:00;;;;;;;;;;;;;;;9.51;54.99;99875.19;5094495;28;20032;-79
2023/01/15 02:26:35;;;;;;;0.10;0.10;;;;;;;9.33;55.50;99851.06;5059950;28;20404;-78
2023/01/15 02:29:06;;;;;;;0.20;0.20;;;;;;;9.30;55.35;99858.22;5044875;28;20052;-77
2023/01/15 02:31:37;;;;;;;0.10;0.10;;;;;;;9.32;55.45;99866.94;5050189;28;20040;-78
2023/01/15 02:34:12;;;;;;;0.17;0.17;;;;;;;9.29;55.05;99853.81;5048866;28;20041;-78
2023/01/15 02:36:45;;;;;;;0.10;0.10;;;;;;;9.28;55.30;99847.66;5049701;28;20033;-78
2023/01/15 02:39:14;;;;;;;0.10;0.10;;;;;;;9.27;55.56;99856.53;5047930;28;20027;-78
2023/01/15 02:41:47;;;;;;;2.17;1.55;;;;;;;9.20;55.26;99871.69;5045823;28;20492;-78
2023/01/15 02:44:19;;;;;;;0.10;0.10;;;;;;;9.26;55.55;99857.44;5037329;28;20116;-76
2023/01/15 02:46:46;;;;;;;0.17;0.17;;;;;;;9.29;55.71;99859.97;5032546;28;20087;-78
2023/01/15 02:49:16;;;;;;;0.20;0.20;;;;;;;9.29;56.25;99859.97;5035105;28;20033;-78
2023/01/15 02:52:05;;;;;;;0.10;0.10;;;;;;;9.22;56.13;99867.22;5038953;28;20033;-78
2023/01/15 02:54:39;;;;;;;0.10;0.10;;;;;;;9.26;56.31;99854.78;5036315;28;20068;-76
2023/01/15 02:57:06;;;;;;;0.10;0.10;;;;;;;9.14;56.05;99850.72;5042111;28;20037;-77
2023/01/15 02:59:38;;;;;;;0.10;0.10;;;;;;;9.21;55.64;99846.13;5036973;28;20067;-77
2023/01/15 03:02:09;;;;;;;0.10;0.10;;;;;;;9.24;55.76;99859.25;5037411;28;20623;-78
2023/01/15 03:04:47;;;;;;;0.10;0.10;;;;;;;9.21;55.23;99872.56;5032985;28;20017;-78
2023/01/15 03:09:56;;;;;;;0.10;0.10;;;;;;;9.17;55.05;99844.47;5067340;28;20391;-78
2023/01/15 03:13:01;;;;;;;0.20;0.20;;;;;;;9.19;54.66;99850.59;5047776;28;20570;-78
2023/01/15 03:18:17;;;;;;;0.10;0.10;;;;;;;9.19;55.17;99846.16;5047729;28;20037;-78
2023/01/15 03:20:50;;;;;;;0.20;0.20;;;;;;;9.20;55.25;99842.59;5048914;28;20033;-78
2023/01/15 03:23:22;;;;;;;0.20;0.20;;;;;;;9.17;55.58;99860.34;5049126;28;20036;-78
2023/01/15 03:25:49;;;;;;;0.20;0.20;;;;;;;9.16;56.96;99845.38;5043265;28;20040;-78
2023/01/15 03:28:22;;;;;;;0.20;0.20;;;;;;;9.05;57.49;99836.00;5048718;28;20113;-78
2023/01/15 03:30:49;;;;;;;0.20;0.20;;;;;;;8.95;58.67;99834.56;5045271;28;20400;-78
2023/01/15 03:33:15;;;;;;;0.10;0.10;;;;;;;8.80;58.00;99840.28;5047607;28;20044;-77
2023/01/15 03:35:56;;;;;;;0.13;0.13;;;;;;;8.71;58.60;99839.66;5049179;28;20089;-77
2023/01/15 03:38:28;;;;;;;0.13;0.13;;;;;;;8.70;58.43;99856.41;5039967;28;20029;-78
2023/01/15 03:41:23;;;;;;;0.10;0.10;;;;;;;8.70;59.08;99861.69;5040853;28;20033;-78
2023/01/15 03:46:53;;;;;;;0.10;0.10;;;;;;;8.70;59.16;99840.56;5106836;27;1187105;-78
2023/01/15 03:49:44;;;;;;;0.20;0.20;;;;;;;8.72;59.13;99836.09;5121632;27;20457;-78
2023/01/15 04:02:53;;;;;;;0.20;0.20;;;;;;;8.73;58.44;99842.25;5048414;28;20416;-78
2023/01/15 04:05:20;;;;;;;0.10;0.10;;;;;;;8.71;58.01;99841.41;5046467;28;20079;-78
2023/01/15 04:07:48;;;;;;;0.17;0.17;;;;;;;8.71;57.97;99836.13;5046452;28;20055;-78
2023/01/15 04:10:14;;;;;;;0.10;0.10;;;;;;;8.80;57.75;99835.00;5052088;28;20037;-77
2023/01/15 04:12:40;;;;;;;0.10;0.10;;;;;;;8.77;58.15;99841.22;5053482;28;20036;-76
2023/01/15 04:15:07;;;;;;;0.10;0.10;;;;;;;8.67;57.28;99845.06;5058572;28;20450;-77
2023/01/15 04:17:33;;;;;;;0.10;0.10;;;;;;;8.80;57.52;99837.63;5054754;28;20043;-78
2023/01/15 04:19:59;;;;;;;0.10;0.10;;;;;;;8.86;57.82;99853.31;5048759;28;20029;-78
2023/01/15 04:22:25;;;;;;;0.10;0.10;;;;;;;8.82;57.19;99838.47;5047071;28;20025;-79
2023/01/15 04:24:53;;;;;;;0.10;0.10;;;;;;;8.84;57.27;99841.94;5049054;28;20566;-78
2023/01/15 04:27:19;;;;;;;0.13;0.13;;;;;;;8.87;57.77;99837.44;5047028;28;20043;-78
2023/01/15 04:29:45;;;;;;;0.20;0.20;;;;;;;8.85;57.92;99839.25;5046710;28;20033;-78
2023/01/15 04:32:12;;;;;;;0.10;0.10;;;;;;;8.87;57.89;99848.00;5047313;28;20021;-79
2023/01/15 04:34:38;;;;;;;0.10;0.10;;;;;;;8.86;57.81;99840.09;5044113;28;20386;-77
2023/01/15 04:37:04;;;;;;;0.47;0.45;;;;;;;8.90;57.89;99833.84;5058384;28;20097;-78
2023/01/15 04:39:30;;;;;;;0.10;0.10;;;;;;;8.84;57.45;99836.66;5053242;28;20036;-76
2023/01/15 04:44:42;;;;;;;0.10;0.10;;;;;;;8.87;57.23;99831.25;5044354;28;20065;-78
2023/01/15 04:47:08;;;;;;;0.10;0.10;;;;;;;8.84;57.18;99836.66;5049078;28;20025;-78
2023/01/15 04:49:35;;;;;;;0.10;0.10;;;;;;;8.92;57.21;99855.78;5043631;28;20029;-78
2023/01/15 04:52:02;;;;;;;0.40;0.40;;;;;;;8.87;56.87;99850.63;5048834;28;20396;-78
2023/01/15 04:54:29;;;;;;;0.10;0.10;;;;;;;8.97;56.08;99840.69;5049120;28;20112;-78
2023/01/15 04:56:55;;;;;;;0.10;0.10;;;;;;;8.94;56.50;99839.91;5049141;28;20031;-78
2023/01/15 04:59:23;;;;;;;0.10;0.10;;;;;;;8.87;56.11;99837.44;5051422;28;20063;-79
2023/01/15 05:01:50;;;;;;;0.10;0.10;;;;;;;8.96;55.54;99830.13;5053742;28;20051;-78
2023/01/15 05:04:16;;;;;;;0.10;0.10;;;;;;;8.88;55.05;99828.59;5053683;28;20029;-78
2023/01/15 05:06:42;;;;;;;0.10;0.10;;;;;;;8.97;54.92;99827.47;5049930;28;20492;-78
2023/01/15 05:09:09;;;;;;;0.10;0.10;;;;;;;8.96;54.97;99841.59;5049661;28;20538;-79
2023/01/15 05:11:36;;;;;;;0.20;0.20;;;;;;;8.88;54.38;99838.28;5049665;28;20406;-78
2023/01/15 05:14:03;;;;;;;0.10;0.10;;;;;;;8.86;53.59;99824.25;5038154;28;20026;-78
2023/01/15 05:16:31;;;;;;;0.10;0.10;;;;;;;8.95;53.98;99825.75;5028006;28;20049;-79
2023/01/15 05:19:01;;;;;;;0.10;0.10;;;;;;;8.80;53.36;99827.94;5032656;28;20041;-78
2023/01/15 05:21:31;;;;;;;0.20;0.20;;;;;;;8.93;52.67;99824.94;5034372;28;20091;-79
2023/01/15 05:23:59;;;;;;;0.20;0.20;;;;;;;8.92;52.74;99818.78;5029871;28;20069;-78
2023/01/15 05:26:27;;;;;;;0.10;0.10;;;;;;;8.89;52.29;99824.19;5033499;28;20041;-79
2023/01/15 05:28:55;;;;;;;0.10;0.10;;;;;;;8.85;52.03;99838.38;5040987;28;20101;-77
2023/01/15 05:31:22;;;;;;;0.10;0.10;;;;;;;8.92;51.80;99828.50;5036048;28;20028;-77
2023/01/15 05:33:50;;;;;;;0.10;0.10;;;;;;;8.76;51.04;99833.34;5037978;28;20116;-78
2023/01/15 05:36:20;;;;;;;0.40;0.40;;;;;;;8.88;51.54;99825.06;5036731;28;20030;-78
2023/01/15 05:38:46;;;;;;;0.10;0.10;;;;;;;8.79;51.56;99823.56;5026930;28;20025;-78
2023/01/15 05:44:06;;;;;;;0.10;0.10;;;;;;;8.90;50.76;99820.63;5030539;28;20041;-78
2023/01/15 05:46:33;;;;;;;0.10;0.10;;;;;;;8.96;51.24;99824.84;5033714;28;20026;-78
2023/01/15 05:49:05;;;;;;;0.10;0.10;;;;;;;8.97;51.29;99832.75;5024643;28;20136;-78
2023/01/15 05:51:32;;;;;;;0.10;0.10;;;;;;;8.81;52.76;99819.13;5022578;28;20029;-79
2023/01/15 05:53:59;;;;;;;0.10;0.10;;;;;;;8.57;53.28;99828.59;5023013;28;20060;-79
2023/01/15 05:56:25;;;;;;;0.20;0.20;;;;;;;8.56;53.83;99847.97;5021014;28;20034;-79
2023/01/15 05:58:52;;;;;;;0.17;0.17;;;;;;;8.41;55.58;99828.13;5019947;28;20060;-79
2023/01/15 06:01:18;;;;;;;0.20;0.20;;;;;;;8.29;55.59;99850.44;5021515;28;20037;-79
2023/01/15 06:03:46;;;;;;;0.10;0.10;;;;;;;7.97;56.52;99852.13;5028264;28;20041;-78
2023/01/15 06:06:14;;;;;;;0.10;0.10;;;;;;;8.00;55.59;99859.09;5031943;28;20022;-78
2023/01/15 06:08:41;;;;;;;0.10;0.10;;;;;;;7.98;56.47;99851.22;5030863;28;20026;-79
2023/01/15 06:11:07;;;;;;;1.55;1.00;;;;;;;7.90;56.45;99850.56;5019195;28;20485;-79
2023/01/15 06:13:34;;;;;;;0.17;0.17;;;;;;;7.93;56.48;99859.25;5022384;28;20071;-79
2023/01/15 06:16:01;;;;;;;0.10;0.10;;;;;;;7.85;56.58;99850.69;5021460;28;20456;-79
2023/01/15 06:18:27;;;;;;;0.10;0.10;;;;;;;7.74;57.14;99866.75;5023560;28;20433;-78
2023/01/15 06:20:53;;;;;;;0.10;0.10;;;;;;;7.73;56.38;99861.53;5020761;28;20022;-79
2023/01/15 06:23:19;;;;;;;0.10;0.10;;;;;;;7.66;55.23;99863.44;5025156;28;20037;-79
2023/01/15 06:25:45;;;;;;;0.10;0.10;;;;;;;7.70;54.45;99865.13;5023787;28;20491;-79
2023/01/15 06:28:12;;;;;;;2.50;2.38;;;;;;;7.77;54.20;99861.41;5021633;28;20049;-79
2023/01/15 06:30:39;;;;;;;0.20;0.20;;;;;;;7.84;54.61;99864.78;5020691;28;20026;-79
2023/01/15 06:33:06;;;;;;;0.20;0.20;;;;;;;7.75;53.48;99864.97;5028321;28;20034;-78
2023/01/15 06:35:32;;;;;;;0.10;0.10;;;;;;;7.89;54.24;99862.88;5025872;28;20040;-79
2023/01/15 06:37:58;;;;;;;0.10;0.10;;;;;;;7.95;54.46;99861.88;5023404;28;20032;-79
2023/01/15 06:40:27;;;;;;;0.20;0.20;;;;;;;7.98;54.12;99861.78;5022834;28;20128;-79
2023/01/15 06:48:29;;;;;;;0.60;0.60;;;;;;;7.90;54.90;99847.91;5035197;28;20057;-77
2023/01/15 06:50:55;;;;;;;0.17;0.17;;;;;;;7.84;55.06;99842.78;5032574;28;20034;-79
2023/01/15 06:53:21;;;;;;;0.20;0.20;;;;;;;7.85;55.19;99845.41;5032339;28;20030;-79
2023/01/15 06:55:47;;;;;;;2.50;2.38;;;;;;;7.70;54.17;99867.75;5029836;28;20025;-78
2023/01/15 06:58:14;;;;;;;0.10;0.10;;;;;;;7.86;54.74;99826.06;5023210;28;20022;-78
2023/01/15 07:00:45;;;;;;;0.10;0.10;;;;;;;7.86;53.96;99838.34;5027876;28;20052;-77
2023/01/15 07:03:13;;;;;;;0.20;0.20;;;;;;;7.84;53.80;99845.44;5033137;28;20046;-78
2023/01/15 07:05:40;;;;;;;0.10;0.10;;;;;;;7.90;54.08;99840.00;5033374;28;20029;-78
2023/01/15 07:08:06;;;;;;;0.10;0.10;;;;;;;7.86;53.91;99838.34;5031219;28;20036;-78
2023/01/15 07:10:34;;;;;;;0.10;0.10;;;;;;;7.81;54.71;99842.88;5030255;28;20563;-77
2023/01/15 07:13:00;;;;;;;0.20;0.20;;;;;;;7.83;54.39;99849.00;5036501;28;20056;-77
2023/01/15 07:15:27;;;;;;;0.10;0.10;;;;;;;7.81;54.16;99850.78;5033044;28;20071;-77
2023/01/15 07:17:55;;;;;;;0.17;0.17;;;;;;;7.86;54.11;99843.63;5032781;28;20298;-78
2023/01/15 07:20:21;;;;;;;0.13;0.13;;;;;;;7.91;54.05;99833.81;5023341;28;20029;-78
2023/01/15 07:22:49;;;;;;;0.40;0.40;;;;;;;7.91;54.54;99845.25;5028996;28;20025;-76
2023/01/15 07:25:15;;;;;;;0.30;0.30;;;;;;;7.90;54.73;99842.63;5034183;28;20041;-77
2023/01/15 07:27:41;;;;;;;0.20;0.20;;;;;;;7.89;55.09;99854.97;5034149;28;20092;-77
2023/01/15 07:30:08;;;;;;;0.20;0.20;;;;;;;7.82;55.12;99850.75;5021927;28;20022;-77
2023/01/15 07:32:34;;;;;;;0.10;0.10;;;;;;;7.84;55.33;99837.50;5024547;28;20029;-79
2023/01/15 07:35:01;;;;;;;0.30;0.30;;;;;;;7.82;54.60;99850.75;5033493;28;20036;-78
2023/01/15 07:37:27;;;;;;;0.17;0.17;;;;;;;7.84;55.50;99838.41;5027407;28;20108;-79
2023/01/15 07:39:53;;;;;;;0.10;0.10;;;;;;;7.82;55.63;99842.84;5021307;28;20030;-78
2023/01/15 07:50:38;;;;;;;0.30;0.30;;;;;;;7.86;54.44;99833.06;5018232;28;20075;-79
2023/01/15 07:53:05;;;;;;;0.10;0.10;;;;;;;7.84;54.39;99853.34;5020400;28;20033;-78
2023/01/15 07:55:31;;;;;;;0.10;0.10;;;;;;;7.87;54.91;99826.91;5023264;28;20083;-77
2023/01/15 07:57:57;;;;;;;0.10;0.10;;;;;;;7.95;54.94;99830.22;5017908;28;20520;-78
2023/01/15 08:00:26;;;;;;;0.17;0.17;;;;;;;7.86;55.03;99826.06;5021851;28;20090;-78
2023/01/15 08:02:52;;;;;;;0.10;0.10;;;;;;;7.88;55.32;99833.91;5029464;28;20036;-79
2023/01/15 08:05:19;;;;;;;0.10;0.10;;;;;;;8.00;54.70;99817.78;5034226;28;20029;-79
2023/01/15 08:07:45;;;;;;;0.10;0.10;;;;;;;7.93;54.78;99832.88;5026241;28;20240;-78
2023/01/15 08:10:13;;;;;;;0.10;0.10;;;;;;;7.97;55.14;99838.94;5024777;28;20042;-78
2023/01/15 08:15:27;;;;;;;0.10;0.10;;;;;;;8.18;55.23;99853.34;5021549;28;20041;-79
2023/01/15 08:17:53;;;;;;;0.10;0.10;;;;;;;8.18;55.51;99857.78;5020587;28;20034;-79
2023/01/15 08:20:22;;;;;;;0.10;0.10;;;;;;;8.16;55.58;99839.34;5020018;28;20052;-79
2023/01/15 08:22:49;;;;;;;0.10;0.10;;;;;;;8.31;55.38;99853.03;5019090;28;20489;-79
2023/01/15 08:25:18;;;;;;;0.10;0.10;;;;;;;8.34;55.48;99845.91;5021099;28;20497;-79
2023/01/15 08:27:44;;;;;;;0.10;0.10;;;;;;;8.32;55.57;99847.72;5021497;28;20408;-79
2023/01/15 08:30:14;;;;;;;0.25;0.25;;;;;;;8.39;55.23;99841.38;5017020;28;20414;-79
2023/01/15 08:32:40;;;;;;;0.10;0.10;;;;;;;8.45;55.12;99834.19;5017748;28;20029;-79
2023/01/15 08:35:07;;;;;;;2.05;1.95;;;;;;;8.48;55.12;99840.28;5018511;28;20038;-79
2023/01/15 08:37:33;;;;;;;0.40;0.40;;;;;;;8.38;55.47;99831.72;5017343;28;20920;-79
2023/01/15 08:39:59;;;;;;;0.15;0.15;;;;;;;8.49;55.39;99827.97;5020117;28;20628;-79
2023/01/15 08:42:25;;;;;;;0.68;0.68;;;;;;;8.38;55.50;99844.06;5019026;28;20406;-79
2023/01/15 08:44:51;;;;;;;0.65;0.65;;;;;;;8.55;55.39;99836.56;5020436;28;20099;-79
2023/01/15 08:47:17;;;;;;;0.10;0.10;;;;;;;8.42;56.16;99841.28;5020216;28;20030;-79
2023/01/15 08:49:46;;;;;;;0.10;0.10;;;;;;;8.55;55.55;99841.00;5022638;28;20128;-79
2023/01/15 08:52:12;;;;;;;0.10;0.10;;;;;;;8.56;55.83;99837.41;5024597;28;20620;-79
2023/01/15 08:54:38;;;;;;;0.20;0.20;;;;;;;8.59;55.77;99858.47;5020508;28;20112;-78
2023/01/15 08:57:04;;;;;;;0.10;0.10;;;;;;;8.50;55.68;99832.31;5022448;28;20041;-79
2023/01/15 08:59:31;;;;;;;42.17;2.00;;;;;;;8.65;55.55;99842.47;5023282;28;20029;-78
2023/01/15 09:01:57;;;;;;;0.10;0.10;;;;;;;8.62;55.34;99839.88;5029403;28;20029;-77
2023/01/15 09:04:23;;;;;;;0.57;0.57;;;;;;;8.61;55.13;99851.38;5035802;28;20037;-77
2023/01/15 09:06:50;;;;;;;0.13;0.13;;;;;;;8.72;54.66;99841.38;5033254;28;20038;-79
2023/01/15 09:09:17;;;;;;;0.28;0.28;;;;;;;8.74;55.01;99842.19;5023160;28;20037;-79
2023/01/15 09:11:44;;;;;;;0.30;0.30;;;;;;;8.81;54.98;99842.91;5022657;28;20097;-78
2023/01/15 09:14:13;;;;;;;0.10;0.10;;;;;;;8.78;55.44;99836.84;5026367;28;20036;-78
2023/01/15 09:16:39;;;;;;;0.10;0.10;;;;;;;8.71;54.94;99844.94;5019858;28;20116;-79
2023/01/15 09:19:06;;;;;;;0.10;0.10;;;;;;;8.89;54.76;99824.19;5023130;28;20115;-78
2023/01/15 09:21:33;;;;;;;0.10;0.10;;;;;;;8.86;54.95;99855.94;5033111;28;20101;-79
2023/01/15 09:23:59;;;;;;;0.10;0.10;;;;;;;8.83;54.66;99854.25;5039845;28;20041;-77
2023/01/15 09:29:06;;;;;;;0.10;0.10;;;;;;;9.02;53.87;99836.13;5085116;27;20406;-77
2023/01/15 09:31:32;;;;;;;0.10;0.10;;;;;;;9.00;54.13;99837.94;5086853;28;20048;-78
2023/01/15 09:33:58;;;;;;;0.17;0.17;;;;;;;9.09;54.02;99838.56;5083118;28;20032;-79
2023/01/15 09:36:28;;;;;;;0.10;0.10;;;;;;;8.93;53.65;99846.94;5082929;28;20035;-82
2023/01/15 09:38:55;;;;;;;1.10;1.10;;;;;;;9.10;53.16;99849.09;5079714;28;20031;-78
2023/01/15 09:44:34;;;;;;;0.20;0.20;;;;;;;9.09;52.18;99852.63;5078801;28;20538;-77
2023/01/15 09:47:23;;;;;;;1.85;1.75;;;;;;;9.24;52.32;99840.75;5083676;28;20032;-78
2023/01/15 09:50:00;;;;;;;0.10;0.10;;;;;;;9.30;54.11;99843.19;5084089;28;20047;-78
2023/01/15 09:55:23;;;;;;;0.10;0.10;;;;;;;9.32;55.36;99833.44;5078856;28;20921;-78
2023/01/15 09:57:54;;;;;;;0.57;0.57;;;;;;;9.25;55.26;99837.19;5069811;28;20753;-79
2023/01/15 10:00:23;;;;;;;0.10;0.10;;;;;;;9.20;55.51;99839.13;5068856;28;20040;-78
2023/01/15 10:03:12;;;;;;;0.10;0.10;;;;;;;9.29;55.83;99857.31;5073369;28;20476;-78
2023/01/15 10:05:45;;;;;;;0.10;0.10;;;;;;;9.23;55.84;99858.38;5074162;28;20028;-79
2023/01/15 10:08:31;;;;;;;0.10;0.10;;;;;;;9.19;55.65;99837.38;5074644;28;20024;-79
2023/01/15 10:11:21;;;;;;;0.10;0.10;;;;;;;9.04;56.17;99858.06;5053621;28;20106;-79
2023/01/15 10:14:12;;;;;;;0.10;0.10;;;;;;;9.17;56.48;99850.66;5073619;28;20024;-77
2023/01/15 10:16:38;;;;;;;0.10;0.10;;;;;;;9.08;56.76;99856.19;5072125;28;20524;-79
2023/01/15 10:19:04;;;;;;;0.32;0.32;;;;;;;9.23;56.35;99852.22;5070146;28;20037;-79
2023/01/15 10:21:53;;;;;;;0.08;0.08;;;;;;;9.38;56.12;99859.69;5075357;28;20036;-78
2023/01/15 10:27:17;;;;;;;0.20;0.20;;;;;;;9.46;55.76;99872.69;5039452;28;20398;-78
2023/01/15 10:29:53;;;;;;;0.10;0.10;;;;;;;9.49;55.71;99874.34;5018884;28;20113;-78
2023/01/15 10:32:51;;;;;;;0.60;0.60;;;;;;;9.41;56.15;99887.81;5021797;28;20048;-77
2023/01/15 10:41:17;;;;;;;0.10;0.10;;;;;;;9.44;56.09;99884.22;5065098;28;20406;-77
2023/01/15 10:44:07;;;;;;;0.10;0.10;;;;;;;9.54;56.24;99875.06;5054023;28;20025;-77
2023/01/15 10:46:39;;;;;;;0.10;0.10;;;;;;;9.56;55.90;99875.91;5055174;28;20048;-77
2023/01/15 10:49:12;;;;;;;0.20;0.20;;;;;;;9.61;55.01;99873.97;5045230;28;20072;-78
2023/01/15 10:52:02;;;;;;;0.10;0.10;;;;;;;9.62;54.88;99899.50;5041684;28;20492;-78
2023/01/15 11:02:41;;;;;;;0.10;0.10;;;;;;;9.54;55.31;99877.72;5087900;27;20399;-78
2023/01/15 11:05:16;;;;;;;0.10;0.10;;;;;;;9.51;55.74;99880.47;5089072;28;20029;-79
2023/01/15 11:07:48;;;;;;;0.10;0.10;;;;;;;9.44;55.46;99894.78;5088635;28;20050;-78
2023/01/15 11:10:18;;;;;;;0.10;0.10;;;;;;;9.34;55.52;99887.13;5091291;28;20024;-78
2023/01/15 11:21:23;;;;;;;0.10;0.10;;;;;;;9.23;56.76;99911.25;5082314;28;20139;-78
2023/01/15 11:23:51;;;;;;;0.13;0.13;;;;;;;9.29;57.13;99875.81;5083823;28;20074;-77
2023/01/15 11:29:10;;;;;;;2.17;0.57;;;;;;;9.30;57.06;99880.19;5081113;27;20389;-80
2023/01/15 11:31:37;;;;;;;0.20;0.20;;;;;;;9.36;57.02;99877.38;5061003;28;20028;-79
2023/01/15 11:34:06;;;;;;;0.10;0.10;;;;;;;9.44;57.12;99884.22;5058496;28;20045;-80
2023/01/15 11:36:33;;;;;;;0.10;0.10;;;;;;;9.39;57.40;99882.59;5061178;28;20040;-79
2023/01/15 11:38:59;;;;;;;0.10;0.10;;;;;;;9.56;57.43;99878.53;5058656;28;20037;-78
2023/01/15 11:52:41;;;;;;;0.10;0.10;;;;;;;9.17;60.99;99873.53;5103210;28;20297;-79
2023/01/15 11:55:14;;;;;;;0.20;0.20;;;;;;;8.96;61.81;99899.72;5101612;27;20127;-78
2023/01/15 11:57:40;;;;;;;0.10;0.10;;;;;;;8.92;62.14;99866.34;5123959;27;20054;-76
2023/01/15 12:00:18;;;;;;;0.10;0.10;;;;;;;8.67;63.35;99856.50;5123576;28;20023;-79
2023/01/15 12:02:46;;;;;;;0.10;0.10;;;;;;;8.37;64.62;99916.22;5117687;28;20111;-76
2023/01/15 12:05:33;;;;;;;0.10;0.10;;;;;;;8.35;64.66;99887.22;5111502;28;20035;-77
2023/01/15 12:08:11;;;;;;;0.82;0.82;;;;;;;8.19;66.27;99891.19;5116947;28;20024;-79
2023/01/15 12:11:03;;;;;;;0.20;0.20;;;;;;;7.98;68.08;99884.66;5109242;28;20027;-79
2023/01/15 12:13:48;;;;;;;0.20;0.20;;;;;;;7.96;68.06;99876.78;5109845;28;21306;-80
2023/01/15 12:16:25;;;;;;;0.10;0.10;;;;;;;8.06;68.12;99865.09;5104020;28;20023;-80
2023/01/15 12:21:58;;;;;;;2.63;1.60;;;;;;;8.06;68.35;99880.94;5069255;28;20414;-78
2023/01/15 12:24:56;;;;;;;0.25;0.25;;;;;;;8.08;68.27;99887.03;5061127;28;20075;-79
2023/01/15 12:30:49;;;;;;;1.58;1.48;;;;;;;8.03;68.41;99870.44;5111212;27;20361;-78
2023/01/15 12:33:45;;;;;;;0.17;0.17;;;;;;;7.97;68.86;99864.47;5091618;28;20093;-78
2023/01/15 12:36:20;;;;;;;0.63;0.63;;;;;;;8.01;68.99;99874.03;5070827;28;20115;-77
2023/01/15 12:38:55;;;;;;;0.10;0.10;;;;;;;8.02;69.46;99876.63;5066651;28;20032;-78
2023/01/15 12:44:58;;;;;;;0.10;0.10;;;;;;;8.13;68.66;99875.50;5064935;28;20040;-78
2023/01/15 12:47:13;;;;;;;0.10;0.10;;;;;;;8.31;69.06;99869.75;5061439;28;20041;-79
2023/01/15 12:49:47;;;;;;;0.10;0.10;;;;;;;8.32;68.17;99874.09;5059651;28;20032;-80
2023/01/15 12:52:23;;;;;;;0.10;0.10;;;;;;;8.37;67.29;99859.03;5064941;28;20040;-78
2023/01/15 12:54:57;;;;;;;0.10;0.10;;;;;;;8.49;66.51;99867.56;5062111;28;20079;-78
2023/01/15 12:57:35;;;;;;;0.10;0.10;;;;;;;8.59;64.77;99869.03;5070499;28;20037;-79
2023/01/15 13:00:12;;;;;;;0.10;0.10;;;;;;;8.80;64.50;99872.84;5071006;28;20032;-78
2023/01/15 13:05:46;;;;;;;0.10;0.10;;;;;;;9.05;62.37;99873.00;5062251;28;20394;-79
2023/01/15 13:08:36;;;;;;;0.10;0.10;;;;;;;9.13;60.07;99890.41;5049414;28;20060;-77
2023/01/15 13:11:02;;;;;;;0.10;0.10;;;;;;;9.27;59.33;99882.97;5049306;28;20044;-79
2023/01/15 13:13:36;;;;;;;0.10;0.10;;;;;;;9.30;58.82;99869.63;5056284;28;20064;-77
2023/01/15 13:21:45;;;;;;;0.10;0.10;;;;;;;9.32;57.13;99875.75;5063363;28;20399;-78
2023/01/15 13:24:49;;;;;;;0.10;0.10;;;;;;;9.38;56.99;99874.69;5053910;28;20029;-78
2023/01/15 13:27:44;;;;;;;0.05;0.05;;;;;;;9.46;57.29;99882.38;5047522;28;20820;-78
2023/01/15 13:33:31;;;;;;;0.10;0.10;;;;;;;9.43;57.00;99887.75;5107891;27;1182660;-78
2023/01/15 13:38:44;;;;;;;0.07;0.07;;;;;;;9.47;56.22;99895.56;5112362;27;1184139;-78
2023/01/15 13:42:30;;;;;;;0.20;0.20;;;;;;;9.55;56.57;99882.94;5133562;27;20035;-81
2023/01/15 13:44:02;;;;;;;0.10;0.10;;;;;;;9.54;56.16;99890.94;5129573;28;20085;-77
2023/01/15 13:46:29;;;;;;;2.63;0.95;;;;;;;9.50;55.69;99894.59;5116288;28;20063;-78
2023/01/15 13:48:55;;;;;;;0.10;0.10;;;;;;;9.45;55.23;99900.03;5118098;28;20116;-77
2023/01/15 13:54:12;;;;;;;0.20;0.20;;;;;;;9.53;55.97;99899.78;5097435;27;20415;-78
2023/01/15 13:56:38;;;;;;;0.13;0.13;;;;;;;9.36;56.42;99930.25;5075760;28;20680;-78
2023/01/15 13:59:26;;;;;;;0.10;0.10;;;;;;;9.45;57.10;99891.22;5071550;28;20074;-78
2023/01/15 14:01:52;;;;;;;22.45;1.60;;;;;;;9.45;57.98;99901.81;5070168;28;20035;-77